sensor_id;sensor_type;location;lat;lon;timestamp;temperature;humidity
32428;DHT22;18882;50.952;4.366;2022-08-05T00:00:48;20.10;99.90
32428;DHT22;18882;50.952;4.366;2022-08-05T00:03:13;20.20;99.90
32428;DHT22;18882;50.952;4.366;2022-08-05T00:05:39;20.30;99.90
32428;DHT22;18882;50.952;4.366;2022-08-05T00:08:07;20.40;99.90
32428;DHT22;18882;50.952;4.366;2022-08-05T00:10:33;20.30;99.90
32428;DHT22;18882;50.952;4.366;2022-08-05T00:12:59;20.30;99.90
32428;DHT22;18882;50.952;4.366;2022-08-05T00:15:25;20.30;99.90
32428;DHT22;18882;50.952;4.366;2022-08-05T00:17:50;20.40;99.90
32428;DHT22;18882;50.952;4.366;2022-08-05T00:20:16;20.40;99.90
32428;DHT22;18882;50.952;4.366;2022-08-05T00:22:42;20.40;99.90
32428;DHT22;18882;50.952;4.366;2022-08-05T00:25:07;20.50;99.90
32428;DHT22;18882;50.952;4.366;2022-08-05T00:27:33;20.60;99.90
32428;DHT22;18882;50.952;4.366;2022-08-05T00:29:58;20.70;99.90
32428;DHT22;18882;50.952;4.366;2022-08-05T00:32:24;20.60;99.90
32428;DHT22;18882;50.952;4.366;2022-08-05T00:34:50;20.50;99.90
32428;DHT22;18882;50.952;4.366;2022-08-05T00:37:15;20.50;99.90
32428;DHT22;18882;50.952;4.366;2022-08-05T00:39:41;20.60;99.90
32428;DHT22;18882;50.952;4.366;2022-08-05T00:42:07;20.60;99.90
32428;DHT22;18882;50.952;4.366;2022-08-05T00:44:33;20.50;99.90
32428;DHT22;18882;50.952;4.366;2022-08-05T00:46:58;20.40;99.90
32428;DHT22;18882;50.952;4.366;2022-08-05T00:49:24;20.40;99.90
32428;DHT22;18882;50.952;4.366;2022-08-05T00:51:50;20.40;99.90
32428;DHT22;18882;50.952;4.366;2022-08-05T00:54:15;20.50;99.90
32428;DHT22;18882;50.952;4.366;2022-08-05T00:56:42;20.50;99.90
32428;DHT22;18882;50.952;4.366;2022-08-05T00:59:07;20.50;99.90
32428;DHT22;18882;50.952;4.366;2022-08-05T01:01:33;20.60;99.90
32428;DHT22;18882;50.952;4.366;2022-08-05T01:03:59;20.70;99.90
32428;DHT22;18882;50.952;4.366;2022-08-05T01:06:24;20.70;99.90
32428;DHT22;18882;50.952;4.366;2022-08-05T01:08:50;20.80;99.90
32428;DHT22;18882;50.952;4.366;2022-08-05T01:11:26;20.30;99.90
32428;DHT22;18882;50.952;4.366;2022-08-05T01:14:17;19.60;99.90
32428;DHT22;18882;50.952;4.366;2022-08-05T01:16:49;19.40;99.90
32428;DHT22;18882;50.952;4.366;2022-08-05T01:22:01;19.30;99.90
32428;DHT22;18882;50.952;4.366;2022-08-05T01:30:14;18.80;99.90
32428;DHT22;18882;50.952;4.366;2022-08-05T01:32:44;18.90;99.90
32428;DHT22;18882;50.952;4.366;2022-08-05T01:35:15;19.10;99.90
32428;DHT22;18882;50.952;4.366;2022-08-05T01:37:52;19.30;99.90
32428;DHT22;18882;50.952;4.366;2022-08-05T01:40:22;19.40;99.90
32428;DHT22;18882;50.952;4.366;2022-08-05T01:42:50;19.50;99.90
32428;DHT22;18882;50.952;4.366;2022-08-05T01:45:18;19.60;99.90
32428;DHT22;18882;50.952;4.366;2022-08-05T01:47:45;19.80;99.90
32428;DHT22;18882;50.952;4.366;2022-08-05T01:50:38;19.70;99.90
32428;DHT22;18882;50.952;4.366;2022-08-05T01:53:10;19.60;99.90
32428;DHT22;18882;50.952;4.366;2022-08-05T01:55:38;19.40;99.90
32428;DHT22;18882;50.952;4.366;2022-08-05T01:58:06;19.50;99.90
32428;DHT22;18882;50.952;4.366;2022-08-05T02:00:36;19.70;99.90
32428;DHT22;18882;50.952;4.366;2022-08-05T02:03:24;19.70;99.90
32428;DHT22;18882;50.952;4.366;2022-08-05T02:05:51;19.70;99.90
32428;DHT22;18882;50.952;4.366;2022-08-05T02:08:18;19.70;99.90
32428;DHT22;18882;50.952;4.366;2022-08-05T02:10:48;19.60;99.90
32428;DHT22;18882;50.952;4.366;2022-08-05T02:13:31;19.60;99.90
32428;DHT22;18882;50.952;4.366;2022-08-05T02:16:04;19.40;99.90
32428;DHT22;18882;50.952;4.366;2022-08-05T02:18:45;19.60;99.90
32428;DHT22;18882;50.952;4.366;2022-08-05T02:21:18;19.80;99.90
32428;DHT22;18882;50.952;4.366;2022-08-05T02:23:49;20.00;99.90
32428;DHT22;18882;50.952;4.366;2022-08-05T02:26:21;20.10;99.90
32428;DHT22;18882;50.952;4.366;2022-08-05T02:28:48;20.10;99.90
32428;DHT22;18882;50.952;4.366;2022-08-05T02:31:20;20.20;99.90
32428;DHT22;18882;50.952;4.366;2022-08-05T02:33:57;20.10;99.90
32428;DHT22;18882;50.952;4.366;2022-08-05T02:36:25;20.20;99.90
32428;DHT22;18882;50.952;4.366;2022-08-05T02:38:52;20.30;99.90
32428;DHT22;18882;50.952;4.366;2022-08-05T02:41:20;20.40;99.90
32428;DHT22;18882;50.952;4.366;2022-08-05T02:43:47;20.30;99.90
32428;DHT22;18882;50.952;4.366;2022-08-05T02:46:15;20.20;99.90
32428;DHT22;18882;50.952;4.366;2022-08-05T02:48:43;19.90;99.90
32428;DHT22;18882;50.952;4.366;2022-08-05T02:51:11;19.90;99.90
32428;DHT22;18882;50.952;4.366;2022-08-05T02:53:38;19.70;99.90
32428;DHT22;18882;50.952;4.366;2022-08-05T02:56:06;19.50;99.90
32428;DHT22;18882;50.952;4.366;2022-08-05T02:58:33;19.40;99.90
32428;DHT22;18882;50.952;4.366;2022-08-05T03:01:00;19.20;99.90
32428;DHT22;18882;50.952;4.366;2022-08-05T03:03:27;19.10;99.90
32428;DHT22;18882;50.952;4.366;2022-08-05T03:05:54;19.20;99.90
32428;DHT22;18882;50.952;4.366;2022-08-05T03:08:23;19.30;99.90
32428;DHT22;18882;50.952;4.366;2022-08-05T03:10:49;19.30;99.90
32428;DHT22;18882;50.952;4.366;2022-08-05T03:13:16;19.40;99.90
32428;DHT22;18882;50.952;4.366;2022-08-05T03:15:45;19.40;99.90
32428;DHT22;18882;50.952;4.366;2022-08-05T03:18:12;19.50;99.90
32428;DHT22;18882;50.952;4.366;2022-08-05T03:20:38;19.50;99.90
32428;DHT22;18882;50.952;4.366;2022-08-05T03:23:05;19.30;99.90
32428;DHT22;18882;50.952;4.366;2022-08-05T03:25:32;19.10;99.90
32428;DHT22;18882;50.952;4.366;2022-08-05T03:28:00;18.90;99.90
32428;DHT22;18882;50.952;4.366;2022-08-05T03:30:28;18.90;99.90
32428;DHT22;18882;50.952;4.366;2022-08-05T03:32:58;18.90;99.90
32428;DHT22;18882;50.952;4.366;2022-08-05T03:35:25;18.90;99.90
32428;DHT22;18882;50.952;4.366;2022-08-05T03:37:52;18.90;99.90
32428;DHT22;18882;50.952;4.366;2022-08-05T03:40:18;18.90;99.90
32428;DHT22;18882;50.952;4.366;2022-08-05T03:42:43;18.90;99.90
32428;DHT22;18882;50.952;4.366;2022-08-05T03:45:09;18.90;99.90
32428;DHT22;18882;50.952;4.366;2022-08-05T03:47:35;18.90;99.90
32428;DHT22;18882;50.952;4.366;2022-08-05T03:50:00;18.80;99.90
32428;DHT22;18882;50.952;4.366;2022-08-05T03:52:32;18.70;99.90
32428;DHT22;18882;50.952;4.366;2022-08-05T03:55:01;18.70;99.90
32428;DHT22;18882;50.952;4.366;2022-08-05T03:57:30;18.60;99.90
32428;DHT22;18882;50.952;4.366;2022-08-05T04:00:09;18.80;99.90
32428;DHT22;18882;50.952;4.366;2022-08-05T04:02:36;18.90;99.90
32428;DHT22;18882;50.952;4.366;2022-08-05T04:05:04;19.10;99.90
32428;DHT22;18882;50.952;4.366;2022-08-05T04:07:32;19.10;99.90
32428;DHT22;18882;50.952;4.366;2022-08-05T04:09:58;19.10;99.90
32428;DHT22;18882;50.952;4.366;2022-08-05T04:12:24;19.00;99.90
32428;DHT22;18882;50.952;4.366;2022-08-05T04:14:51;18.70;99.90
32428;DHT22;18882;50.952;4.366;2022-08-05T04:17:16;18.60;99.90
32428;DHT22;18882;50.952;4.366;2022-08-05T04:19:46;18.60;99.90
32428;DHT22;18882;50.952;4.366;2022-08-05T04:22:12;18.60;99.90
32428;DHT22;18882;50.952;4.366;2022-08-05T04:24:43;18.60;99.90
32428;DHT22;18882;50.952;4.366;2022-08-05T04:27:09;18.60;99.90
32428;DHT22;18882;50.952;4.366;2022-08-05T04:29:35;18.60;99.90
32428;DHT22;18882;50.952;4.366;2022-08-05T04:32:01;18.60;99.90
32428;DHT22;18882;50.952;4.366;2022-08-05T04:34:27;18.60;99.90
32428;DHT22;18882;50.952;4.366;2022-08-05T04:36:52;18.70;99.90
32428;DHT22;18882;50.952;4.366;2022-08-05T04:39:19;18.70;99.90
32428;DHT22;18882;50.952;4.366;2022-08-05T04:41:45;18.70;99.90
32428;DHT22;18882;50.952;4.366;2022-08-05T04:44:11;18.80;99.90
32428;DHT22;18882;50.952;4.366;2022-08-05T04:46:37;18.80;99.90
32428;DHT22;18882;50.952;4.366;2022-08-05T04:49:04;18.70;99.90
32428;DHT22;18882;50.952;4.366;2022-08-05T04:51:30;18.80;99.90
32428;DHT22;18882;50.952;4.366;2022-08-05T04:53:57;18.80;99.90
32428;DHT22;18882;50.952;4.366;2022-08-05T04:56:23;18.80;99.90
32428;DHT22;18882;50.952;4.366;2022-08-05T04:58:48;18.80;99.90
32428;DHT22;18882;50.952;4.366;2022-08-05T05:01:14;18.70;99.90
32428;DHT22;18882;50.952;4.366;2022-08-05T05:03:40;18.70;99.90
32428;DHT22;18882;50.952;4.366;2022-08-05T05:06:09;18.70;99.90
32428;DHT22;18882;50.952;4.366;2022-08-05T05:08:39;18.70;99.90
32428;DHT22;18882;50.952;4.366;2022-08-05T05:11:05;18.70;99.90
32428;DHT22;18882;50.952;4.366;2022-08-05T05:13:31;18.70;99.90
32428;DHT22;18882;50.952;4.366;2022-08-05T05:15:57;18.60;99.90
32428;DHT22;18882;50.952;4.366;2022-08-05T05:18:23;18.60;99.90
32428;DHT22;18882;50.952;4.366;2022-08-05T05:20:49;18.50;99.90
32428;DHT22;18882;50.952;4.366;2022-08-05T05:23:15;18.40;99.90
32428;DHT22;18882;50.952;4.366;2022-08-05T05:25:42;18.40;99.90
32428;DHT22;18882;50.952;4.366;2022-08-05T05:28:09;18.40;99.90
32428;DHT22;18882;50.952;4.366;2022-08-05T05:30:36;18.50;99.90
32428;DHT22;18882;50.952;4.366;2022-08-05T05:33:04;18.50;99.90
32428;DHT22;18882;50.952;4.366;2022-08-05T05:35:31;18.60;99.90
32428;DHT22;18882;50.952;4.366;2022-08-05T05:37:58;18.70;99.90
32428;DHT22;18882;50.952;4.366;2022-08-05T05:40:25;18.80;99.90
32428;DHT22;18882;50.952;4.366;2022-08-05T05:42:52;18.70;99.90
32428;DHT22;18882;50.952;4.366;2022-08-05T05:45:18;18.60;99.90
32428;DHT22;18882;50.952;4.366;2022-08-05T05:47:44;18.50;99.90
32428;DHT22;18882;50.952;4.366;2022-08-05T05:50:12;18.60;99.90
32428;DHT22;18882;50.952;4.366;2022-08-05T05:52:39;18.60;99.90
32428;DHT22;18882;50.952;4.366;2022-08-05T05:55:07;18.60;99.90
32428;DHT22;18882;50.952;4.366;2022-08-05T05:57:34;18.50;99.90
32428;DHT22;18882;50.952;4.366;2022-08-05T06:00:00;18.50;99.90
32428;DHT22;18882;50.952;4.366;2022-08-05T06:02:25;18.60;99.90
32428;DHT22;18882;50.952;4.366;2022-08-05T06:04:51;18.60;99.90
32428;DHT22;18882;50.952;4.366;2022-08-05T06:07:17;18.70;99.90
32428;DHT22;18882;50.952;4.366;2022-08-05T06:09:43;18.70;99.90
32428;DHT22;18882;50.952;4.366;2022-08-05T06:12:09;18.80;99.90
32428;DHT22;18882;50.952;4.366;2022-08-05T06:14:34;18.90;99.90
32428;DHT22;18882;50.952;4.366;2022-08-05T06:17:00;19.20;99.90
32428;DHT22;18882;50.952;4.366;2022-08-05T06:19:26;19.30;99.90
32428;DHT22;18882;50.952;4.366;2022-08-05T06:21:52;19.50;99.90
32428;DHT22;18882;50.952;4.366;2022-08-05T06:24:18;19.50;99.90
32428;DHT22;18882;50.952;4.366;2022-08-05T06:26:44;19.60;99.90
32428;DHT22;18882;50.952;4.366;2022-08-05T06:29:10;19.40;99.90
32428;DHT22;18882;50.952;4.366;2022-08-05T06:31:36;19.40;99.90
32428;DHT22;18882;50.952;4.366;2022-08-05T06:34:03;19.30;99.90
32428;DHT22;18882;50.952;4.366;2022-08-05T06:36:29;19.50;99.90
32428;DHT22;18882;50.952;4.366;2022-08-05T06:38:55;19.40;99.90
32428;DHT22;18882;50.952;4.366;2022-08-05T06:41:21;19.20;99.90
32428;DHT22;18882;50.952;4.366;2022-08-05T06:43:47;19.00;99.90
32428;DHT22;18882;50.952;4.366;2022-08-05T06:46:13;18.90;99.90
32428;DHT22;18882;50.952;4.366;2022-08-05T06:48:39;19.00;99.90
32428;DHT22;18882;50.952;4.366;2022-08-05T06:51:05;19.20;99.90
32428;DHT22;18882;50.952;4.366;2022-08-05T06:53:31;19.20;99.90
32428;DHT22;18882;50.952;4.366;2022-08-05T06:55:58;19.30;99.90
32428;DHT22;18882;50.952;4.366;2022-08-05T06:58:24;19.50;99.90
32428;DHT22;18882;50.952;4.366;2022-08-05T07:00:50;19.60;99.90
32428;DHT22;18882;50.952;4.366;2022-08-05T07:03:16;19.80;99.90
32428;DHT22;18882;50.952;4.366;2022-08-05T07:05:41;19.80;99.90
32428;DHT22;18882;50.952;4.366;2022-08-05T07:08:07;20.00;99.90
32428;DHT22;18882;50.952;4.366;2022-08-05T07:10:33;20.00;99.90
32428;DHT22;18882;50.952;4.366;2022-08-05T07:12:58;19.80;99.90
32428;DHT22;18882;50.952;4.366;2022-08-05T07:15:43;19.70;99.90
32428;DHT22;18882;50.952;4.366;2022-08-05T07:18:27;19.60;99.90
32428;DHT22;18882;50.952;4.366;2022-08-05T07:20:52;19.50;99.90
32428;DHT22;18882;50.952;4.366;2022-08-05T07:23:18;19.60;99.90
32428;DHT22;18882;50.952;4.366;2022-08-05T07:25:44;19.60;99.90
32428;DHT22;18882;50.952;4.366;2022-08-05T07:28:09;19.70;99.90
32428;DHT22;18882;50.952;4.366;2022-08-05T07:30:36;19.90;99.90
32428;DHT22;18882;50.952;4.366;2022-08-05T07:33:04;19.80;99.90
32428;DHT22;18882;50.952;4.366;2022-08-05T07:35:31;20.00;99.90
32428;DHT22;18882;50.952;4.366;2022-08-05T07:37:56;19.90;99.90
32428;DHT22;18882;50.952;4.366;2022-08-05T07:40:22;19.80;99.90
32428;DHT22;18882;50.952;4.366;2022-08-05T07:42:48;19.80;99.90
32428;DHT22;18882;50.952;4.366;2022-08-05T07:45:14;19.60;99.90
32428;DHT22;18882;50.952;4.366;2022-08-05T07:47:40;19.60;99.90
32428;DHT22;18882;50.952;4.366;2022-08-05T07:50:07;19.60;99.90
32428;DHT22;18882;50.952;4.366;2022-08-05T07:52:38;19.50;99.90
32428;DHT22;18882;50.952;4.366;2022-08-05T07:55:05;19.60;99.90
32428;DHT22;18882;50.952;4.366;2022-08-05T07:57:31;19.70;99.90
32428;DHT22;18882;50.952;4.366;2022-08-05T07:59:56;19.60;99.90
32428;DHT22;18882;50.952;4.366;2022-08-05T08:02:27;19.70;99.90
32428;DHT22;18882;50.952;4.366;2022-08-05T08:04:53;19.70;99.90
32428;DHT22;18882;50.952;4.366;2022-08-05T08:07:19;19.80;99.90
32428;DHT22;18882;50.952;4.366;2022-08-05T08:09:45;19.90;99.90
32428;DHT22;18882;50.952;4.366;2022-08-05T08:12:12;19.90;99.90
32428;DHT22;18882;50.952;4.366;2022-08-05T08:14:41;20.00;99.90
32428;DHT22;18882;50.952;4.366;2022-08-05T08:17:06;20.20;99.90
32428;DHT22;18882;50.952;4.366;2022-08-05T08:19:39;20.40;99.90
32428;DHT22;18882;50.952;4.366;2022-08-05T08:22:05;20.60;99.90
32428;DHT22;18882;50.952;4.366;2022-08-05T08:24:32;20.80;99.90
32428;DHT22;18882;50.952;4.366;2022-08-05T08:26:58;21.30;99.90
32428;DHT22;18882;50.952;4.366;2022-08-05T08:29:24;21.50;99.90
32428;DHT22;18882;50.952;4.366;2022-08-05T08:31:50;21.50;99.90
32428;DHT22;18882;50.952;4.366;2022-08-05T08:34:22;21.60;99.90
32428;DHT22;18882;50.952;4.366;2022-08-05T08:36:47;22.00;99.90
32428;DHT22;18882;50.952;4.366;2022-08-05T08:39:14;22.10;99.90
32428;DHT22;18882;50.952;4.366;2022-08-05T08:41:43;21.80;99.90
32428;DHT22;18882;50.952;4.366;2022-08-05T08:44:11;21.40;99.90
32428;DHT22;18882;50.952;4.366;2022-08-05T08:46:38;21.00;99.90
32428;DHT22;18882;50.952;4.366;2022-08-05T08:49:05;20.80;99.90
32428;DHT22;18882;50.952;4.366;2022-08-05T08:51:33;20.90;99.90
32428;DHT22;18882;50.952;4.366;2022-08-05T08:53:59;20.80;99.90
32428;DHT22;18882;50.952;4.366;2022-08-05T08:56:25;21.00;99.90
32428;DHT22;18882;50.952;4.366;2022-08-05T08:58:51;21.10;99.90
32428;DHT22;18882;50.952;4.366;2022-08-05T09:01:17;21.30;99.90
32428;DHT22;18882;50.952;4.366;2022-08-05T09:03:52;21.50;99.90
32428;DHT22;18882;50.952;4.366;2022-08-05T09:06:19;21.60;99.90
32428;DHT22;18882;50.952;4.366;2022-08-05T09:08:45;21.60;99.90
32428;DHT22;18882;50.952;4.366;2022-08-05T09:11:10;21.80;99.90
32428;DHT22;18882;50.952;4.366;2022-08-05T09:13:37;22.00;99.90
32428;DHT22;18882;50.952;4.366;2022-08-05T09:16:04;22.30;99.90
32428;DHT22;18882;50.952;4.366;2022-08-05T09:18:34;22.30;99.90
32428;DHT22;18882;50.952;4.366;2022-08-05T09:21:01;22.50;99.90
32428;DHT22;18882;50.952;4.366;2022-08-05T09:23:27;22.80;99.90
32428;DHT22;18882;50.952;4.366;2022-08-05T09:26:08;23.20;99.90
32428;DHT22;18882;50.952;4.366;2022-08-05T09:28:35;23.20;99.90
32428;DHT22;18882;50.952;4.366;2022-08-05T09:31:12;23.40;99.90
32428;DHT22;18882;50.952;4.366;2022-08-05T09:33:49;23.80;99.90
32428;DHT22;18882;50.952;4.366;2022-08-05T09:36:15;23.60;99.90
32428;DHT22;18882;50.952;4.366;2022-08-05T09:38:57;23.40;99.90
32428;DHT22;18882;50.952;4.366;2022-08-05T09:41:23;23.40;99.90
32428;DHT22;18882;50.952;4.366;2022-08-05T09:43:49;23.10;99.90
32428;DHT22;18882;50.952;4.366;2022-08-05T09:48:50;23.00;99.90
32428;DHT22;18882;50.952;4.366;2022-08-05T09:51:33;22.90;99.90
32428;DHT22;18882;50.952;4.366;2022-08-05T09:53:59;22.50;99.90
32428;DHT22;18882;50.952;4.366;2022-08-05T09:56:31;22.00;99.90
32428;DHT22;18882;50.952;4.366;2022-08-05T09:59:06;21.90;99.90
32428;DHT22;18882;50.952;4.366;2022-08-05T10:01:33;22.20;99.90
32428;DHT22;18882;50.952;4.366;2022-08-05T10:04:07;22.70;99.90
32428;DHT22;18882;50.952;4.366;2022-08-05T10:06:35;22.70;99.90
32428;DHT22;18882;50.952;4.366;2022-08-05T10:09:13;22.80;99.90
32428;DHT22;18882;50.952;4.366;2022-08-05T10:11:40;22.80;99.90
32428;DHT22;18882;50.952;4.366;2022-08-05T10:14:29;22.80;99.90
32428;DHT22;18882;50.952;4.366;2022-08-05T10:16:57;22.60;99.90
32428;DHT22;18882;50.952;4.366;2022-08-05T10:19:36;22.30;99.90
32428;DHT22;18882;50.952;4.366;2022-08-05T10:22:02;22.40;99.90
32428;DHT22;18882;50.952;4.366;2022-08-05T10:24:27;22.50;99.90
32428;DHT22;18882;50.952;4.366;2022-08-05T10:26:57;22.80;99.90
32428;DHT22;18882;50.952;4.366;2022-08-05T10:29:24;23.30;99.90
32428;DHT22;18882;50.952;4.366;2022-08-05T10:31:51;23.80;99.90
32428;DHT22;18882;50.952;4.366;2022-08-05T10:34:18;24.30;99.90
32428;DHT22;18882;50.952;4.366;2022-08-05T10:36:44;23.90;99.90
32428;DHT22;18882;50.952;4.366;2022-08-05T10:39:21;23.40;99.90
32428;DHT22;18882;50.952;4.366;2022-08-05T10:42:00;23.40;99.90
32428;DHT22;18882;50.952;4.366;2022-08-05T10:44:27;23.80;99.90
32428;DHT22;18882;50.952;4.366;2022-08-05T10:46:55;24.10;99.90
32428;DHT22;18882;50.952;4.366;2022-08-05T10:49:24;24.30;99.90
32428;DHT22;18882;50.952;4.366;2022-08-05T10:51:54;24.70;99.90
32428;DHT22;18882;50.952;4.366;2022-08-05T10:54:24;25.50;99.90
32428;DHT22;18882;50.952;4.366;2022-08-05T10:56:51;26.20;99.90
32428;DHT22;18882;50.952;4.366;2022-08-05T10:59:30;26.70;99.90
32428;DHT22;18882;50.952;4.366;2022-08-05T11:02:10;25.60;99.90
32428;DHT22;18882;50.952;4.366;2022-08-05T11:04:47;24.50;99.90
32428;DHT22;18882;50.952;4.366;2022-08-05T11:07:14;23.80;99.90
32428;DHT22;18882;50.952;4.366;2022-08-05T11:09:52;23.30;99.90
32428;DHT22;18882;50.952;4.366;2022-08-05T11:15:07;22.90;99.90
32428;DHT22;18882;50.952;4.366;2022-08-05T11:17:35;23.30;99.90
32428;DHT22;18882;50.952;4.366;2022-08-05T11:20:04;23.50;99.90
32428;DHT22;18882;50.952;4.366;2022-08-05T11:22:46;23.60;99.90
32428;DHT22;18882;50.952;4.366;2022-08-05T11:25:35;23.60;99.90
32428;DHT22;18882;50.952;4.366;2022-08-05T11:33:35;22.60;99.90
32428;DHT22;18882;50.952;4.366;2022-08-05T11:36:05;22.50;99.90
32428;DHT22;18882;50.952;4.366;2022-08-05T11:41:13;22.40;99.90
32428;DHT22;18882;50.952;4.366;2022-08-05T11:43:51;22.60;99.90
32428;DHT22;18882;50.952;4.366;2022-08-05T11:46:24;22.60;99.90
32428;DHT22;18882;50.952;4.366;2022-08-05T11:48:49;22.40;99.90
32428;DHT22;18882;50.952;4.366;2022-08-05T11:51:15;22.40;99.90
32428;DHT22;18882;50.952;4.366;2022-08-05T11:53:41;22.40;99.90
32428;DHT22;18882;50.952;4.366;2022-08-05T11:56:07;22.30;99.90
32428;DHT22;18882;50.952;4.366;2022-08-05T11:58:38;22.20;99.90
32428;DHT22;18882;50.952;4.366;2022-08-05T12:01:12;22.30;99.90
32428;DHT22;18882;50.952;4.366;2022-08-05T12:03:53;22.40;99.90
32428;DHT22;18882;50.952;4.366;2022-08-05T12:06:21;22.50;99.90
32428;DHT22;18882;50.952;4.366;2022-08-05T12:08:54;22.50;99.90
32428;DHT22;18882;50.952;4.366;2022-08-05T12:11:22;22.70;99.90
32428;DHT22;18882;50.952;4.366;2022-08-05T12:14:00;22.90;99.90
32428;DHT22;18882;50.952;4.366;2022-08-05T12:16:30;23.10;99.90
32428;DHT22;18882;50.952;4.366;2022-08-05T12:18:56;23.10;99.90
32428;DHT22;18882;50.952;4.366;2022-08-05T12:21:26;23.00;99.90
32428;DHT22;18882;50.952;4.366;2022-08-05T12:24:14;23.00;99.90
32428;DHT22;18882;50.952;4.366;2022-08-05T12:26:51;23.10;99.90
32428;DHT22;18882;50.952;4.366;2022-08-05T12:29:22;22.90;99.90
32428;DHT22;18882;50.952;4.366;2022-08-05T12:31:55;22.60;99.90
32428;DHT22;18882;50.952;4.366;2022-08-05T12:34:30;22.70;99.90
32428;DHT22;18882;50.952;4.366;2022-08-05T12:36:59;22.70;99.90
32428;DHT22;18882;50.952;4.366;2022-08-05T12:39:26;22.50;99.90
32428;DHT22;18882;50.952;4.366;2022-08-05T12:41:57;22.40;99.90
32428;DHT22;18882;50.952;4.366;2022-08-05T12:44:23;22.50;99.90
32428;DHT22;18882;50.952;4.366;2022-08-05T12:46:53;22.70;99.90
32428;DHT22;18882;50.952;4.366;2022-08-05T12:49:20;22.70;99.90
32428;DHT22;18882;50.952;4.366;2022-08-05T12:51:50;22.70;99.90
32428;DHT22;18882;50.952;4.366;2022-08-05T12:54:22;22.80;99.90
32428;DHT22;18882;50.952;4.366;2022-08-05T12:56:51;22.80;99.90
32428;DHT22;18882;50.952;4.366;2022-08-05T12:59:21;23.20;99.90
32428;DHT22;18882;50.952;4.366;2022-08-05T13:01:57;23.40;99.90
32428;DHT22;18882;50.952;4.366;2022-08-05T13:04:34;23.70;99.90
32428;DHT22;18882;50.952;4.366;2022-08-05T13:07:07;23.70;99.90
32428;DHT22;18882;50.952;4.366;2022-08-05T13:09:38;23.40;99.90
32428;DHT22;18882;50.952;4.366;2022-08-05T13:12:06;23.60;99.90
32428;DHT22;18882;50.952;4.366;2022-08-05T13:14:39;23.80;99.90
32428;DHT22;18882;50.952;4.366;2022-08-05T13:17:15;23.70;99.90
32428;DHT22;18882;50.952;4.366;2022-08-05T13:20:08;23.90;99.90
32428;DHT22;18882;50.952;4.366;2022-08-05T13:22:45;23.80;99.90
32428;DHT22;18882;50.952;4.366;2022-08-05T13:25:12;23.70;99.90
32428;DHT22;18882;50.952;4.366;2022-08-05T13:27:44;23.70;99.90
32428;DHT22;18882;50.952;4.366;2022-08-05T13:30:13;23.50;99.90
32428;DHT22;18882;50.952;4.366;2022-08-05T13:32:40;23.20;99.90
32428;DHT22;18882;50.952;4.366;2022-08-05T13:35:07;23.20;99.90
32428;DHT22;18882;50.952;4.366;2022-08-05T13:37:34;23.00;99.90
32428;DHT22;18882;50.952;4.366;2022-08-05T13:40:00;23.10;99.90
32428;DHT22;18882;50.952;4.366;2022-08-05T13:42:26;23.00;99.90
32428;DHT22;18882;50.952;4.366;2022-08-05T13:44:55;23.20;99.90
32428;DHT22;18882;50.952;4.366;2022-08-05T13:47:22;23.30;99.90
32428;DHT22;18882;50.952;4.366;2022-08-05T13:49:48;23.60;99.90
32428;DHT22;18882;50.952;4.366;2022-08-05T13:52:17;23.70;99.90
32428;DHT22;18882;50.952;4.366;2022-08-05T13:54:43;23.90;99.90
32428;DHT22;18882;50.952;4.366;2022-08-05T13:57:10;24.00;99.90
32428;DHT22;18882;50.952;4.366;2022-08-05T13:59:36;24.20;99.90
32428;DHT22;18882;50.952;4.366;2022-08-05T14:02:03;24.30;99.90
32428;DHT22;18882;50.952;4.366;2022-08-05T14:04:35;24.30;99.90
32428;DHT22;18882;50.952;4.366;2022-08-05T14:07:24;24.30;99.90
32428;DHT22;18882;50.952;4.366;2022-08-05T14:09:49;24.40;99.90
32428;DHT22;18882;50.952;4.366;2022-08-05T14:12:15;24.50;99.90
32428;DHT22;18882;50.952;4.366;2022-08-05T14:14:41;24.30;99.90
32428;DHT22;18882;50.952;4.366;2022-08-05T14:17:06;24.20;99.90
32428;DHT22;18882;50.952;4.366;2022-08-05T14:19:32;23.90;99.90
32428;DHT22;18882;50.952;4.366;2022-08-05T14:21:58;23.60;99.90
32428;DHT22;18882;50.952;4.366;2022-08-05T14:24:24;23.20;99.90
32428;DHT22;18882;50.952;4.366;2022-08-05T14:26:50;22.90;99.90
32428;DHT22;18882;50.952;4.366;2022-08-05T14:29:16;22.60;99.90
32428;DHT22;18882;50.952;4.366;2022-08-05T14:31:42;22.60;99.90
32428;DHT22;18882;50.952;4.366;2022-08-05T14:34:09;22.80;99.90
32428;DHT22;18882;50.952;4.366;2022-08-05T14:36:35;22.90;99.90
32428;DHT22;18882;50.952;4.366;2022-08-05T14:39:01;22.80;99.90
32428;DHT22;18882;50.952;4.366;2022-08-05T14:41:26;22.40;99.90
32428;DHT22;18882;50.952;4.366;2022-08-05T14:43:52;22.30;99.90
32428;DHT22;18882;50.952;4.366;2022-08-05T14:46:25;22.50;99.90
32428;DHT22;18882;50.952;4.366;2022-08-05T14:48:51;22.60;99.90
32428;DHT22;18882;50.952;4.366;2022-08-05T14:51:17;22.50;99.90
32428;DHT22;18882;50.952;4.366;2022-08-05T14:53:42;22.50;99.90
32428;DHT22;18882;50.952;4.366;2022-08-05T14:56:14;22.40;99.90
32428;DHT22;18882;50.952;4.366;2022-08-05T14:58:40;22.60;99.90
32428;DHT22;18882;50.952;4.366;2022-08-05T15:01:07;22.50;99.90
32428;DHT22;18882;50.952;4.366;2022-08-05T15:03:34;22.40;99.90
32428;DHT22;18882;50.952;4.366;2022-08-05T15:06:05;22.40;99.90
32428;DHT22;18882;50.952;4.366;2022-08-05T15:08:34;22.10;99.90
32428;DHT22;18882;50.952;4.366;2022-08-05T15:11:00;22.10;99.90
32428;DHT22;18882;50.952;4.366;2022-08-05T15:13:38;22.10;99.90
32428;DHT22;18882;50.952;4.366;2022-08-05T15:16:04;22.10;99.90
32428;DHT22;18882;50.952;4.366;2022-08-05T15:18:30;22.10;99.90
32428;DHT22;18882;50.952;4.366;2022-08-05T15:21:06;22.00;99.90
32428;DHT22;18882;50.952;4.366;2022-08-05T15:23:33;22.20;99.90
32428;DHT22;18882;50.952;4.366;2022-08-05T15:25:58;22.20;99.90
32428;DHT22;18882;50.952;4.366;2022-08-05T15:28:24;22.40;99.90
32428;DHT22;18882;50.952;4.366;2022-08-05T15:30:50;22.30;99.90
32428;DHT22;18882;50.952;4.366;2022-08-05T15:33:16;22.20;99.90
32428;DHT22;18882;50.952;4.366;2022-08-05T15:35:41;21.90;99.90
32428;DHT22;18882;50.952;4.366;2022-08-05T15:38:08;21.80;99.90
32428;DHT22;18882;50.952;4.366;2022-08-05T15:40:34;21.90;99.90
32428;DHT22;18882;50.952;4.366;2022-08-05T15:43:00;22.10;99.90
32428;DHT22;18882;50.952;4.366;2022-08-05T15:45:26;22.00;99.90
32428;DHT22;18882;50.952;4.366;2022-08-05T15:47:53;22.20;99.90
32428;DHT22;18882;50.952;4.366;2022-08-05T15:50:19;22.30;99.90
32428;DHT22;18882;50.952;4.366;2022-08-05T15:52:44;22.30;99.90
32428;DHT22;18882;50.952;4.366;2022-08-05T15:55:11;21.80;99.90
32428;DHT22;18882;50.952;4.366;2022-08-05T15:57:44;21.60;99.90
32428;DHT22;18882;50.952;4.366;2022-08-05T16:00:11;21.40;99.90